Hiei — JD3800 — position and weather

sailwx.info

Track history (hours):
 
Tides and Currents Weather Stations Pressure Air Temp Water Temp Dewpoint Dewpoint Depression Visibility Wind Speed Wind Dir Waves Ship Positions

Hiei

Last reported at 2017-Nov-14 22:43 UTC. Time now 2017-Nov-22 01:31 UTC.
Position N 34°31' E 135°24'.

Length 36 m; draft 3.8 m.

Type: Tug. MMSI: 431006214.

Date/timePositionNaut miles runAvg speedWind from/ knotsBaromVisibWave heightAir tempDewpointWater temp
2017-Nov-14 22:43N 34°31' E 135°24'0 0.0
2017-Nov-14 07:20N 34°31' E 135°24'0 0.0
2017-Nov-14 07:00N 34°31' E 135°24'3 2.2
2017-Nov-14 05:34N 34°33' E 135°26'0 1.2
2017-Nov-14 05:14N 34°33' E 135°26'1 3.3
2017-Nov-14 05:00N 34°33' E 135°25'3 6.6
2017-Nov-14 04:30N 34°34' E 135°21'5 1.9
2017-Nov-14 01:55N 34°33' E 135°27'1 1.2
2017-Nov-14 01:05N 34°33' E 135°25'0 2.1
2017-Nov-14 00:59N 34°33' E 135°25'2 4.0
2017-Nov-14 00:30N 34°33' E 135°23'2 3.7
2017-Nov-13 23:52N 34°33' E 135°20'  
2017-Nov-08 21:22N 34°31' E 135°24'0 0.0
2017-Nov-08 07:51N 34°31' E 135°24'0 0.0
2017-Nov-08 07:09N 34°31' E 135°24'0 0.0
2017-Nov-08 06:57N 34°31' E 135°24'0 0.0
2017-Nov-08 06:27N 34°31' E 135°24'0 0.0
2017-Nov-08 05:45N 34°31' E 135°24'0 0.0
2017-Nov-08 05:30N 34°31' E 135°24'9 0.3
2017-Nov-07 04:04N 34°39' E 135°26'0 0.9
2017-Nov-07 04:00N 34°39' E 135°26'2 3.1
2017-Nov-07 03:29N 34°39' E 135°24'0 0.0
2017-Nov-07 03:00N 34°39' E 135°24'1 2.6
2017-Nov-07 02:30N 34°38' E 135°23'5 9.0
2017-Nov-07 02:00N 34°33' E 135°23'1 2.4
2017-Nov-07 01:29N 34°32' E 135°23'2 1.9
2017-Nov-07 00:31N 34°34' E 135°24'0 0.1
2017-Nov-07 00:07N 34°34' E 135°24'110.8
2017-Nov-07 00:00N 34°33' E 135°24'2 3.8
2017-Nov-06 23:30N 34°31' E 135°24'0 0.0
2017-Nov-06 23:00N 34°31' E 135°24'0 0.0
2017-Nov-06 22:30N 34°31' E 135°24'3 0.2
2017-Nov-06 02:29N 34°33' E 135°27'1 2.1
2017-Nov-06 01:59N 34°33' E 135°25'1 0.9
2017-Nov-06 01:17N 34°33' E 135°25'0 0.0
2017-Nov-06 01:00N 34°33' E 135°25'0 0.2
2017-Nov-06 00:24N 34°33' E 135°25'1 2.1
2017-Nov-05 23:58N 34°34' E 135°25'0 0.0
2017-Nov-05 23:28N 34°34' E 135°25'0 0.2
2017-Nov-05 22:53N 34°34' E 135°25'0 0.2
2017-Nov-05 22:28N 34°34' E 135°25'0 0.2
2017-Nov-05 22:00N 34°33' E 135°25'0 0.2
2017-Nov-05 21:30N 34°34' E 135°25'0 0.2
2017-Nov-05 21:00N 34°33' E 135°25'0 0.1
2017-Nov-05 20:25N 34°34' E 135°25'0 0.2
2017-Nov-05 20:00N 34°33' E 135°25'0 0.1
2017-Nov-05 19:30N 34°33' E 135°25'0 0.1
2017-Nov-05 18:59N 34°33' E 135°25'0 0.0
2017-Nov-05 18:30N 34°33' E 135°25'0 0.0
2017-Nov-05 18:00N 34°33' E 135°25'0 0.0
2017-Nov-05 17:30N 34°33' E 135°25'0 0.0
2017-Nov-05 17:00N 34°33' E 135°25'0 0.1
2017-Nov-05 16:30N 34°33' E 135°25'0 0.1
2017-Nov-05 16:00N 34°34' E 135°25'0 0.0
2017-Nov-05 15:30N 34°34' E 135°25'0 0.1
2017-Nov-05 15:01N 34°33' E 135°25'0 0.1
2017-Nov-05 14:30N 34°34' E 135°25'0 0.1
2017-Nov-05 14:00N 34°34' E 135°25'0 0.1
2017-Nov-05 13:29N 34°33' E 135°25'0 0.0
2017-Nov-05 13:00N 34°33' E 135°25'0 0.1
2017-Nov-05 12:30N 34°34' E 135°25'0 0.1
2017-Nov-05 12:00N 34°33' E 135°25'0 0.0
2017-Nov-05 11:30N 34°33' E 135°25'0 0.1
2017-Nov-05 11:00N 34°33' E 135°25'0 0.2
2017-Nov-05 10:30N 34°34' E 135°25'0 0.2
2017-Nov-05 10:01N 34°33' E 135°25'0 0.1
2017-Nov-05 09:30N 34°34' E 135°25'0 0.0
2017-Nov-05 09:00N 34°34' E 135°25'0 0.0
2017-Nov-05 08:28N 34°34' E 135°25'0 0.0
2017-Nov-05 08:00N 34°33' E 135°25'0 0.2
2017-Nov-05 07:29N 34°33' E 135°25'0 0.1
2017-Nov-05 07:00N 34°33' E 135°25'0 0.0
2017-Nov-05 06:29N 34°33' E 135°25'0 0.1
2017-Nov-05 06:00N 34°34' E 135°25'0 0.0
2017-Nov-05 05:30N 34°33' E 135°25'0 0.1
2017-Nov-05 04:57N 34°34' E 135°25'0 0.1
2017-Nov-05 04:30N 34°34' E 135°25'0 0.1
2017-Nov-05 04:00N 34°34' E 135°25'0 0.0
2017-Nov-05 02:18N 34°34' E 135°25'0 0.5
2017-Nov-05 02:00N 34°34' E 135°25'2 3.4
2017-Nov-05 01:27N 34°33' E 135°23'2 4.6
2017-Nov-05 01:00N 34°33' E 135°20'  
Track history (hours):
 
Tides and Currents Weather Stations Pressure Air Temp Water Temp Dewpoint Dewpoint Depression Visibility Wind Speed Wind Dir Waves Ship Positions

Hiei

Last reported at 2017-Nov-14 22:43 UTC. Time now 2017-Nov-22 01:31 UTC.
Position N 34°31' E 135°24'.

Length 36 m; draft 3.8 m.

Type: Tug. MMSI: 431006214.

Date/timePositionNaut miles runAvg speedWind from/ knotsBaromVisibWave heightAir tempDewpointWater temp
2017-Nov-14 22:43N 34°31' E 135°24'0 0.0
2017-Nov-14 07:20N 34°31' E 135°24'0 0.0
2017-Nov-14 07:00N 34°31' E 135°24'3 2.2
2017-Nov-14 05:34N 34°33' E 135°26'0 1.2
2017-Nov-14 05:14N 34°33' E 135°26'1 3.3
2017-Nov-14 05:00N 34°33' E 135°25'3 6.6
2017-Nov-14 04:30N 34°34' E 135°21'5 1.9
2017-Nov-14 01:55N 34°33' E 135°27'1 1.2
2017-Nov-14 01:05N 34°33' E 135°25'0 2.1
2017-Nov-14 00:59N 34°33' E 135°25'2 4.0
2017-Nov-14 00:30N 34°33' E 135°23'2 3.7
2017-Nov-13 23:52N 34°33' E 135°20'  
2017-Nov-08 21:22N 34°31' E 135°24'0 0.0
2017-Nov-08 07:51N 34°31' E 135°24'0 0.0
2017-Nov-08 07:09N 34°31' E 135°24'0 0.0
2017-Nov-08 06:57N 34°31' E 135°24'0 0.0
2017-Nov-08 06:27N 34°31' E 135°24'0 0.0
2017-Nov-08 05:45N 34°31' E 135°24'0 0.0
2017-Nov-08 05:30N 34°31' E 135°24'9 0.3
2017-Nov-07 04:04N 34°39' E 135°26'0 0.9
2017-Nov-07 04:00N 34°39' E 135°26'2 3.1
2017-Nov-07 03:29N 34°39' E 135°24'0 0.0
2017-Nov-07 03:00N 34°39' E 135°24'1 2.6
2017-Nov-07 02:30N 34°38' E 135°23'5 9.0
2017-Nov-07 02:00N 34°33' E 135°23'1 2.4
2017-Nov-07 01:29N 34°32' E 135°23'2 1.9
2017-Nov-07 00:31N 34°34' E 135°24'0 0.1
2017-Nov-07 00:07N 34°34' E 135°24'110.8
2017-Nov-07 00:00N 34°33' E 135°24'2 3.8
2017-Nov-06 23:30N 34°31' E 135°24'0 0.0
2017-Nov-06 23:00N 34°31' E 135°24'0 0.0
2017-Nov-06 22:30N 34°31' E 135°24'3 0.2
2017-Nov-06 02:29N 34°33' E 135°27'1 2.1
2017-Nov-06 01:59N 34°33' E 135°25'1 0.9
2017-Nov-06 01:17N 34°33' E 135°25'0 0.0
2017-Nov-06 01:00N 34°33' E 135°25'0 0.2
2017-Nov-06 00:24N 34°33' E 135°25'1 2.1
2017-Nov-05 23:58N 34°34' E 135°25'0 0.0
2017-Nov-05 23:28N 34°34' E 135°25'0 0.2
2017-Nov-05 22:53N 34°34' E 135°25'0 0.2
2017-Nov-05 22:28N 34°34' E 135°25'0 0.2
2017-Nov-05 22:00N 34°33' E 135°25'0 0.2
2017-Nov-05 21:30N 34°34' E 135°25'0 0.2
2017-Nov-05 21:00N 34°33' E 135°25'0 0.1
2017-Nov-05 20:25N 34°34' E 135°25'0 0.2
2017-Nov-05 20:00N 34°33' E 135°25'0 0.1
2017-Nov-05 19:30N 34°33' E 135°25'0 0.1
2017-Nov-05 18:59N 34°33' E 135°25'0 0.0
2017-Nov-05 18:30N 34°33' E 135°25'0 0.0
2017-Nov-05 18:00N 34°33' E 135°25'0 0.0
2017-Nov-05 17:30N 34°33' E 135°25'0 0.0
2017-Nov-05 17:00N 34°33' E 135°25'0 0.1
2017-Nov-05 16:30N 34°33' E 135°25'0 0.1
2017-Nov-05 16:00N 34°34' E 135°25'0 0.0
2017-Nov-05 15:30N 34°34' E 135°25'0 0.1
2017-Nov-05 15:01N 34°33' E 135°25'0 0.1
2017-Nov-05 14:30N 34°34' E 135°25'0 0.1
2017-Nov-05 14:00N 34°34' E 135°25'0 0.1
2017-Nov-05 13:29N 34°33' E 135°25'0 0.0
2017-Nov-05 13:00N 34°33' E 135°25'0 0.1
2017-Nov-05 12:30N 34°34' E 135°25'0 0.1
2017-Nov-05 12:00N 34°33' E 135°25'0 0.0
2017-Nov-05 11:30N 34°33' E 135°25'0 0.1
2017-Nov-05 11:00N 34°33' E 135°25'0 0.2
2017-Nov-05 10:30N 34°34' E 135°25'0 0.2
2017-Nov-05 10:01N 34°33' E 135°25'0 0.1
2017-Nov-05 09:30N 34°34' E 135°25'0 0.0
2017-Nov-05 09:00N 34°34' E 135°25'0 0.0
2017-Nov-05 08:28N 34°34' E 135°25'0 0.0
2017-Nov-05 08:00N 34°33' E 135°25'0 0.2
2017-Nov-05 07:29N 34°33' E 135°25'0 0.1
2017-Nov-05 07:00N 34°33' E 135°25'0 0.0
2017-Nov-05 06:29N 34°33' E 135°25'0 0.1
2017-Nov-05 06:00N 34°34' E 135°25'0 0.0
2017-Nov-05 05:30N 34°33' E 135°25'0 0.1
2017-Nov-05 04:57N 34°34' E 135°25'0 0.1
2017-Nov-05 04:30N 34°34' E 135°25'0 0.1
2017-Nov-05 04:00N 34°34' E 135°25'0 0.0
2017-Nov-05 02:18N 34°34' E 135°25'0 0.5
2017-Nov-05 02:00N 34°34' E 135°25'2 3.4
2017-Nov-05 01:27N 34°33' E 135°23'2 4.6
2017-Nov-05 01:00N 34°33' E 135°20'  

Dump ship's entire track history